Time;durP1;ratioP1;P1;durP2;ratioP2;P2;SDS_P1;SDS_P2;PMS_P1;PMS_P2;Temp;Humidity;BMP_temperature;BMP_pressure;BME280_temperature;BME280_humidity;BME280_pressure;Samples;Min_cycle;Max_cycle;Signal;HPM_P1;HPM_P2
2022/01/13 00:02:16;;;;;;;85.83;27.23;;;;;3.40;103438.00;;;;5067427;28;20236;-70
2022/01/13 00:05:02;;;;;;;78.50;25.73;;;;;3.30;103437.00;;;;5068382;28;20239;-68
2022/01/13 00:07:49;;;;;;;85.63;27.60;;;;;3.40;103448.00;;;;5065459;28;20742;-71
2022/01/13 00:10:35;;;;;;;73.97;25.63;;;;;3.40;103457.00;;;;5067968;28;20232;-71
2022/01/13 00:13:25;;;;;;;80.67;26.70;;;;;3.50;103453.00;;;;5062469;28;20627;-70
2022/01/13 00:16:26;;;;;;;81.30;25.37;;;;;3.50;103458.00;;;;5079899;28;20366;-70
2022/01/13 00:19:31;;;;;;;86.37;26.10;;;;;3.50;103450.00;;;;5062960;28;20235;-67
2022/01/13 00:22:25;;;;;;;71.93;23.83;;;;;3.40;103448.00;;;;5063898;28;20228;-71
2022/01/13 00:25:14;;;;;;;71.97;25.03;;;;;3.40;103445.00;;;;5066815;28;20920;-71
2022/01/13 00:28:05;;;;;;;80.30;25.13;;;;;3.50;103433.00;;;;5061653;28;20235;-71
2022/01/13 00:30:55;;;;;;;79.30;25.30;;;;;3.60;103437.00;;;;5056420;28;20306;-69
2022/01/13 00:33:45;;;;;;;85.63;25.97;;;;;3.50;103443.00;;;;5061317;28;21077;-69
2022/01/13 00:36:33;;;;;;;72.40;23.83;;;;;3.50;103435.00;;;;5057302;28;20332;-69
2022/01/13 00:39:20;;;;;;;75.93;23.37;;;;;3.30;103438.00;;;;5057862;28;20754;-70
2022/01/13 00:42:08;;;;;;;75.27;24.17;;;;;3.40;103446.00;;;;5058199;28;20291;-69
2022/01/13 00:44:54;;;;;;;72.40;23.93;;;;;3.40;103448.00;;;;5051613;28;20245;-69
2022/01/13 00:47:41;;;;;;;77.03;24.27;;;;;3.30;103458.00;;;;5059536;28;20310;-70
2022/01/13 00:50:29;;;;;;;76.77;24.87;;;;;3.40;103451.00;;;;5054170;28;20650;-71
2022/01/13 00:53:16;;;;;;;75.63;23.83;;;;;3.40;103411.00;;;;5057851;28;20486;-69
2022/01/13 00:56:02;;;;;;;65.50;22.60;;;;;3.50;103451.00;;;;5056117;28;20229;-71
2022/01/13 00:58:48;;;;;;;62.60;22.30;;;;;3.40;103440.00;;;;5050363;28;20630;-69
2022/01/13 01:01:35;;;;;;;63.07;21.70;;;;;3.30;103439.00;;;;5055485;28;20343;-70
2022/01/13 01:04:23;;;;;;;65.43;22.10;;;;;3.60;103454.00;;;;5052228;28;20243;-70
2022/01/13 01:07:11;;;;;;;62.53;21.53;;;;;3.40;103457.00;;;;5053254;28;20602;-70
2022/01/13 01:10:01;;;;;;;61.90;20.77;;;;;3.50;103457.00;;;;5060927;28;20228;-69
2022/01/13 01:12:47;;;;;;;58.37;21.60;;;;;3.40;103451.00;;;;5063469;28;20243;-69
2022/01/13 01:15:34;;;;;;;58.53;20.73;;;;;3.40;103447.00;;;;5066534;28;20291;-69
2022/01/13 01:18:30;;;;;;;54.83;18.80;;;;;3.30;103459.00;;;;5059854;28;20975;-70
2022/01/13 01:24:57;;;;;;;51.97;19.17;;;;;3.40;103452.00;;;;5063248;28;20260;-71
2022/01/13 01:27:48;;;;;;;48.70;17.83;;;;;3.40;103462.00;;;;5057331;28;20262;-69
2022/01/13 01:30:39;;;;;;;48.13;18.13;;;;;3.40;103458.00;;;;5065754;28;20365;-69
2022/01/13 01:33:25;;;;;;;59.67;19.43;;;;;3.40;103458.00;;;;5063937;28;20232;-70
2022/01/13 01:36:13;;;;;;;58.17;19.53;;;;;3.50;103464.00;;;;5066057;28;20243;-70
2022/01/13 01:39:00;;;;;;;52.10;19.07;;;;;3.40;103473.00;;;;5060254;28;20220;-69
2022/01/13 01:41:51;;;;;;;60.83;18.97;;;;;3.50;103476.00;;;;5058380;28;20223;-69
2022/01/13 01:44:41;;;;;;;53.57;19.07;;;;;3.40;103476.00;;;;5065895;28;20240;-69
2022/01/13 01:47:29;;;;;;;55.50;18.57;;;;;3.60;103479.00;;;;5066395;28;20229;-69
2022/01/13 01:50:22;;;;;;;58.43;19.77;;;;;3.50;103475.00;;;;5062053;28;20240;-69
2022/01/13 01:53:08;;;;;;;57.43;18.73;;;;;3.40;103475.00;;;;5061304;28;20256;-69
2022/01/13 01:55:56;;;;;;;57.43;19.37;;;;;3.50;103468.00;;;;5058788;28;20761;-69
2022/01/13 01:58:44;;;;;;;61.70;21.33;;;;;3.50;103466.00;;;;5064418;28;20276;-69
2022/01/13 02:01:30;;;;;;;60.00;18.93;;;;;3.40;103469.00;;;;5063925;28;20274;-68
2022/01/13 02:04:18;;;;;;;62.13;20.00;;;;;3.40;103458.00;;;;5065722;28;20243;-69
2022/01/13 02:07:07;;;;;;;59.93;20.00;;;;;3.40;103452.00;;;;5059901;28;20231;-69
2022/01/13 02:09:54;;;;;;;63.87;20.40;;;;;3.40;103459.00;;;;5065121;28;20632;-66
2022/01/13 02:12:45;;;;;;;57.03;19.83;;;;;3.50;103459.00;;;;5065252;28;20938;-70
2022/01/13 02:15:35;;;;;;;61.57;20.90;;;;;3.40;103456.00;;;;5065598;28;20326;-68
2022/01/13 02:18:21;;;;;;;64.17;20.87;;;;;3.40;103456.00;;;;5065263;28;20259;-65
2022/01/13 02:21:11;;;;;;;71.70;22.07;;;;;3.50;103450.00;;;;5065077;28;20235;-67
2022/01/13 02:23:58;;;;;;;65.97;22.40;;;;;3.40;103456.00;;;;5058598;28;20725;-64
2022/01/13 02:26:45;;;;;;;71.10;22.27;;;;;3.40;103454.00;;;;5063300;28;20229;-68
2022/01/13 02:29:31;;;;;;;80.57;22.30;;;;;3.60;103457.00;;;;5063833;28;20240;-70
2022/01/13 02:32:18;;;;;;;82.00;23.60;;;;;3.60;103448.00;;;;5061842;28;20247;-71
2022/01/13 02:35:05;;;;;;;72.57;22.73;;;;;3.50;103440.00;;;;5062231;28;20227;-68
2022/01/13 02:37:52;;;;;;;85.00;24.87;;;;;3.50;103445.00;;;;5056022;28;20289;-73
2022/01/13 02:40:39;;;;;;;77.40;21.93;;;;;3.40;103439.00;;;;5073287;28;20240;-70
2022/01/13 02:43:29;;;;;;;75.90;23.40;;;;;3.60;103447.00;;;;5067812;28;20235;-70
2022/01/13 02:46:30;;;;;;;87.57;24.70;;;;;3.60;103444.00;;;;5069005;28;20342;-69
2022/01/13 02:49:19;;;;;;;81.57;24.00;;;;;3.40;103451.00;;;;5067790;28;20742;-70
2022/01/13 02:52:06;;;;;;;83.23;24.63;;;;;3.50;103457.00;;;;5063894;28;20229;-71
2022/01/13 02:54:53;;;;;;;91.30;24.30;;;;;3.50;103447.00;;;;5062240;28;20263;-69
2022/01/13 02:57:43;;;;;;;87.20;23.93;;;;;3.30;103439.00;;;;5068901;28;20309;-69
2022/01/13 03:00:30;;;;;;;96.80;26.10;;;;;3.60;103436.00;;;;5069182;28;20539;-70
2022/01/13 03:03:16;;;;;;;104.70;25.97;;;;;3.70;103432.00;;;;5068958;28;20232;-69
2022/01/13 03:06:06;;;;;;;88.90;24.93;;;;;3.50;103424.00;;;;5066172;28;20240;-69
2022/01/13 03:08:53;;;;;;;81.73;24.20;;;;;3.60;103419.00;;;;5061968;28;20220;-69
2022/01/13 03:11:43;;;;;;;100.30;26.50;;;;;3.50;103426.00;;;;5068463;28;20261;-70
2022/01/13 03:14:29;;;;;;;83.97;23.43;;;;;3.50;103426.00;;;;5068685;28;20297;-73
2022/01/13 03:17:16;;;;;;;91.03;26.00;;;;;3.50;103432.00;;;;5069114;28;20237;-70
2022/01/13 03:20:02;;;;;;;96.13;26.27;;;;;3.30;103430.00;;;;5068292;28;20282;-70
2022/01/13 03:22:48;;;;;;;95.60;26.90;;;;;3.40;103435.00;;;;5062272;28;20220;-70
2022/01/13 03:25:35;;;;;;;88.67;26.70;;;;;3.50;103430.00;;;;5067486;28;20227;-69
2022/01/13 03:28:30;;;;;;;104.13;26.93;;;;;3.50;103433.00;;;;5068502;28;20342;-70
2022/01/13 03:31:16;;;;;;;95.20;25.73;;;;;3.40;103425.00;;;;5063511;28;20336;-69
2022/01/13 03:34:03;;;;;;;88.37;25.17;;;;;3.30;103418.00;;;;5065446;28;20236;-69
2022/01/13 03:36:49;;;;;;;91.83;25.97;;;;;3.40;103419.00;;;;5060782;28;20215;-70
2022/01/13 03:39:36;;;;;;;81.03;25.83;;;;;3.40;103430.00;;;;5067615;28;20231;-67
2022/01/13 03:42:22;;;;;;;97.77;24.73;;;;;3.40;103429.00;;;;5067840;28;20236;-69
2022/01/13 03:45:10;;;;;;;92.70;25.63;;;;;3.50;103432.00;;;;5067790;28;20238;-69
2022/01/13 03:47:56;;;;;;;103.30;25.47;;;;;3.70;103423.00;;;;5068028;28;20247;-69
2022/01/13 03:50:44;;;;;;;92.37;25.70;;;;;3.60;103427.00;;;;5067626;28;20604;-69
2022/01/13 03:54:30;;;;;;;94.60;25.23;;;;;3.40;103426.00;;;;5067909;28;20800;-70
2022/01/13 03:58:03;;;;;;;80.23;24.53;;;;;3.50;103425.00;;;;4982185;28;20435;-70
2022/01/13 04:01:35;;;;;;;90.60;26.23;;;;;3.50;103408.00;;;;5061197;28;20224;-70
2022/01/13 04:04:22;;;;;;;86.77;22.10;;;;;3.50;103410.00;;;;5064899;28;20236;-69
2022/01/13 04:07:18;;;;;;;96.57;24.70;;;;;3.50;103411.00;;;;5062603;28;20286;-69
2022/01/13 04:10:38;;;;;;;82.27;26.47;;;;;3.50;103416.00;;;;5064233;28;20231;-69
2022/01/13 04:13:44;;;;;;;87.33;23.97;;;;;3.50;103403.00;;;;5064897;28;20232;-68
2022/01/13 04:16:36;;;;;;;82.73;24.00;;;;;3.40;103414.00;;;;5068937;28;20338;-71
2022/01/13 04:19:22;;;;;;;83.47;25.47;;;;;3.50;103413.00;;;;5078200;28;20305;-69
2022/01/13 04:22:10;;;;;;;87.77;25.73;;;;;3.40;103413.00;;;;5067685;28;20294;-70
2022/01/13 04:24:56;;;;;;;99.40;25.30;;;;;3.40;103411.00;;;;5063313;28;20228;-69
2022/01/13 04:27:44;;;;;;;86.40;24.87;;;;;3.50;103410.00;;;;5067840;28;20610;-70
2022/01/13 04:30:45;;;;;;;91.73;25.53;;;;;3.50;103409.00;;;;5067325;28;20317;-68
2022/01/13 04:33:34;;;;;;;84.10;23.67;;;;;3.30;103395.00;;;;5067702;28;20703;-69
2022/01/13 04:36:21;;;;;;;82.90;23.97;;;;;3.50;103386.00;;;;5064171;28;20367;-70
2022/01/13 04:39:09;;;;;;;89.73;24.67;;;;;3.50;103387.00;;;;5067474;28;20306;-69
2022/01/13 04:41:56;;;;;;;84.07;24.67;;;;;3.50;103391.00;;;;5064686;28;20711;-70
2022/01/13 04:44:42;;;;;;;97.87;26.73;;;;;3.50;103392.00;;;;5075701;28;20223;-70
2022/01/13 04:47:29;;;;;;;81.87;24.80;;;;;3.50;103385.00;;;;5061547;28;20245;-71
2022/01/13 04:50:17;;;;;;;90.17;25.87;;;;;3.70;103389.00;;;;5067004;28;20719;-70
2022/01/13 04:53:03;;;;;;;93.87;26.40;;;;;3.50;103391.00;;;;5067069;28;20240;-69
2022/01/13 04:55:51;;;;;;;91.13;25.60;;;;;3.60;103390.00;;;;5065515;28;20711;-70
2022/01/13 04:58:37;;;;;;;99.20;24.83;;;;;3.60;103390.00;;;;5067147;28;20277;-68
2022/01/13 05:01:23;;;;;;;83.20;24.50;;;;;3.40;103390.00;;;;5064111;28;20250;-69
2022/01/13 05:04:10;;;;;;;83.10;24.27;;;;;3.50;103349.00;;;;5066660;28;20378;-71
2022/01/13 05:06:58;;;;;;;94.13;26.03;;;;;3.60;103378.00;;;;5059337;28;20286;-70
2022/01/13 05:09:44;;;;;;;81.83;24.67;;;;;3.60;103378.00;;;;5058179;28;20228;-67
2022/01/13 05:12:36;;;;;;;89.77;26.33;;;;;3.60;103375.00;;;;5066326;28;20243;-68
2022/01/13 05:15:25;;;;;;;75.30;23.37;;;;;3.60;103379.00;;;;5066191;28;20261;-70
2022/01/13 05:18:18;;;;;;;84.80;25.60;;;;;3.60;103380.00;;;;5062341;28;20608;-71
2022/01/13 05:21:07;;;;;;;86.77;24.50;;;;;3.50;103380.00;;;;5061940;28;20255;-70
2022/01/13 05:23:55;;;;;;;84.13;23.97;;;;;3.60;103374.00;;;;5059527;28;20228;-71
2022/01/13 05:26:42;;;;;;;88.57;25.73;;;;;3.50;103369.00;;;;5066286;28;20235;-70
2022/01/13 05:29:28;;;;;;;77.10;25.43;;;;;3.40;103371.00;;;;5064022;28;20239;-70
2022/01/13 05:32:14;;;;;;;89.40;24.20;;;;;3.50;103378.00;;;;5059349;28;20606;-68
2022/01/13 05:35:00;;;;;;;83.07;24.07;;;;;3.40;103375.00;;;;5060713;28;20586;-69
2022/01/13 05:37:46;;;;;;;93.60;25.13;;;;;3.30;103373.00;;;;5065102;28;20227;-69
2022/01/13 05:40:40;;;;;;;80.30;24.57;;;;;3.40;103346.00;;;;5067376;28;20241;-73
2022/01/13 05:43:26;;;;;;;86.37;25.43;;;;;3.50;103360.00;;;;5067460;28;20239;-73
2022/01/13 05:46:13;;;;;;;83.40;23.13;;;;;3.40;103362.00;;;;5067832;28;20353;-70
2022/01/13 05:48:59;;;;;;;89.90;24.40;;;;;3.50;103363.00;;;;5065511;28;20738;-69
2022/01/13 05:51:45;;;;;;;93.40;26.70;;;;;3.50;103353.00;;;;5059882;28;20215;-70
2022/01/13 05:54:32;;;;;;;95.03;26.93;;;;;3.40;103371.00;;;;5065537;28;20290;-69
2022/01/13 05:57:19;;;;;;;99.03;26.90;;;;;3.50;103372.00;;;;5065382;28;20231;-69
2022/01/13 06:00:08;;;;;;;96.57;26.03;;;;;3.40;103367.00;;;;5065405;28;20235;-70
2022/01/13 06:02:55;;;;;;;91.00;27.13;;;;;3.30;103374.00;;;;5058496;28;20220;-69
2022/01/13 06:05:41;;;;;;;98.60;26.30;;;;;3.30;103377.00;;;;5064532;28;20278;-70
2022/01/13 06:08:28;;;;;;;90.40;26.17;;;;;3.30;103377.00;;;;5063248;28;20607;-70
2022/01/13 06:11:14;;;;;;;88.60;25.10;;;;;3.30;103383.00;;;;5063887;28;20227;-69
2022/01/13 06:14:02;;;;;;;96.93;25.67;;;;;3.40;103369.00;;;;5059415;28;20223;-70
2022/01/13 06:16:48;;;;;;;92.53;26.27;;;;;3.30;103363.00;;;;5057634;28;20297;-70
2022/01/13 06:19:35;;;;;;;96.07;26.07;;;;;3.40;103355.00;;;;5065671;28;20273;-70
2022/01/13 06:22:21;;;;;;;102.67;25.63;;;;;3.40;103357.00;;;;5065485;28;20236;-70
2022/01/13 06:25:08;;;;;;;86.47;24.67;;;;;3.30;103353.00;;;;5060804;28;20223;-68
2022/01/13 06:27:55;;;;;;;90.90;24.60;;;;;3.30;103358.00;;;;5062062;28;20259;-68
2022/01/13 06:31:02;;;;;;;86.40;24.83;;;;;3.40;103366.00;;;;5064472;28;20240;-70
2022/01/13 06:33:49;;;;;;;98.33;25.23;;;;;3.30;103355.00;;;;5060113;28;20374;-71
2022/01/13 06:36:35;;;;;;;87.40;25.10;;;;;3.40;103367.00;;;;5065484;28;20273;-70
2022/01/13 06:39:21;;;;;;;94.10;25.33;;;;;3.30;103360.00;;;;5065116;28;20235;-69
2022/01/13 06:42:08;;;;;;;97.97;26.27;;;;;3.30;103367.00;;;;5065237;28;20223;-70
2022/01/13 06:44:55;;;;;;;100.53;27.00;;;;;3.30;103373.00;;;;5065569;28;20254;-69
2022/01/13 06:47:43;;;;;;;92.37;24.70;;;;;3.10;103360.00;;;;5065391;28;20247;-69
2022/01/13 06:50:29;;;;;;;88.23;24.47;;;;;3.30;103366.00;;;;5053054;28;20371;-70
2022/01/13 06:53:15;;;;;;;97.10;25.43;;;;;3.30;103359.00;;;;5054423;28;20235;-69
2022/01/13 06:56:01;;;;;;;92.23;24.90;;;;;3.40;103370.00;;;;5060478;28;20701;-70
2022/01/13 06:58:49;;;;;;;85.97;25.57;;;;;3.50;103363.00;;;;5059824;28;20216;-70
2022/01/13 07:01:36;;;;;;;85.07;22.47;;;;;3.40;103363.00;;;;5065117;28;20244;-70
2022/01/13 07:04:24;;;;;;;91.63;24.73;;;;;3.20;103355.00;;;;5064896;28;20753;-71
2022/01/13 07:07:10;;;;;;;93.83;23.87;;;;;3.30;103365.00;;;;5064675;28;20310;-71
2022/01/13 07:09:57;;;;;;;80.30;22.50;;;;;3.30;103370.00;;;;5064957;28;20251;-71
2022/01/13 07:12:43;;;;;;;81.40;23.83;;;;;3.40;103381.00;;;;5064685;28;20247;-72
2022/01/13 07:15:31;;;;;;;99.80;25.13;;;;;3.30;103381.00;;;;5062918;28;20305;-72
2022/01/13 07:18:17;;;;;;;88.43;23.57;;;;;3.40;103380.00;;;;5065848;28;20297;-72
2022/01/13 07:21:06;;;;;;;97.70;23.93;;;;;3.30;103370.00;;;;5062407;28;20240;-72
2022/01/13 07:23:52;;;;;;;94.37;24.40;;;;;3.40;103381.00;;;;5058290;28;20226;-72
2022/01/13 07:26:39;;;;;;;86.80;24.40;;;;;3.40;103386.00;;;;5064470;28;20273;-71
2022/01/13 07:29:25;;;;;;;86.43;23.17;;;;;3.40;103376.00;;;;5064893;28;20240;-72
2022/01/13 07:32:12;;;;;;;91.20;22.40;;;;;3.40;103376.00;;;;5067908;28;20231;-73
2022/01/13 07:34:58;;;;;;;86.83;22.97;;;;;3.30;103384.00;;;;5068623;28;20258;-72
2022/01/13 07:37:46;;;;;;;84.00;22.03;;;;;3.30;103379.00;;;;5066661;28;20628;-72
2022/01/13 07:40:32;;;;;;;79.93;22.00;;;;;3.40;103384.00;;;;5076675;28;20232;-71
2022/01/13 07:43:23;;;;;;;82.93;23.03;;;;;3.60;103389.00;;;;5065792;28;21010;-73
2022/01/13 07:46:09;;;;;;;77.50;20.53;;;;;3.30;103383.00;;;;5068353;28;20869;-73
2022/01/13 07:48:55;;;;;;;76.00;22.40;;;;;3.20;103385.00;;;;5065551;28;20228;-72
2022/01/13 07:51:42;;;;;;;74.53;24.33;;;;;3.30;103393.00;;;;5068494;28;20587;-71
2022/01/13 07:54:31;;;;;;;76.70;21.60;;;;;3.40;103394.00;;;;5066179;28;20232;-71
2022/01/13 07:57:20;;;;;;;74.07;20.43;;;;;3.40;103396.00;;;;5065622;28;20359;-72
2022/01/13 08:00:08;;;;;;;91.20;21.33;;;;;3.30;103391.00;;;;5068210;28;20227;-73
2022/01/13 08:02:55;;;;;;;75.37;21.70;;;;;3.30;103391.00;;;;5067699;28;20228;-72
2022/01/13 08:05:42;;;;;;;78.43;21.33;;;;;3.30;103386.00;;;;5067628;28;20610;-73
2022/01/13 08:08:28;;;;;;;75.93;21.33;;;;;3.40;103400.00;;;;5065736;28;20354;-70
2022/01/13 08:11:16;;;;;;;75.47;23.00;;;;;3.20;103399.00;;;;5063567;28;20322;-72
2022/01/13 08:14:02;;;;;;;70.13;20.20;;;;;3.20;103400.00;;;;5063843;28;20662;-71
2022/01/13 08:16:50;;;;;;;81.70;21.17;;;;;3.20;103408.00;;;;5060217;28;20584;-71
2022/01/13 08:19:48;;;;;;;82.77;22.37;;;;;3.30;103397.00;;;;5066614;28;20240;-72
2022/01/13 08:22:36;;;;;;;90.20;24.37;;;;;3.30;103394.00;;;;5067227;28;20276;-70
2022/01/13 08:25:28;;;;;;;78.83;22.13;;;;;3.30;103415.00;;;;5067505;28;20228;-71
2022/01/13 08:28:15;;;;;;;86.27;22.47;;;;;3.30;103412.00;;;;5063468;28;20637;-71
2022/01/13 08:31:03;;;;;;;83.87;22.20;;;;;3.30;103408.00;;;;5066655;28;20230;-71
2022/01/13 08:33:50;;;;;;;84.53;20.83;;;;;3.20;103414.00;;;;5062122;28;20351;-71
2022/01/13 08:36:36;;;;;;;83.67;23.53;;;;;3.30;103423.00;;;;5067380;28;20350;-72
2022/01/13 08:39:22;;;;;;;85.07;21.87;;;;;3.40;103417.00;;;;5067015;28;20239;-72
2022/01/13 08:42:08;;;;;;;81.73;21.80;;;;;3.30;103422.00;;;;5066854;28;20867;-70
2022/01/13 08:44:56;;;;;;;79.63;21.37;;;;;3.40;103416.00;;;;5060798;28;20842;-70
2022/01/13 08:47:44;;;;;;;77.80;23.37;;;;;3.30;103424.00;;;;5056608;28;20662;-72
2022/01/13 08:50:30;;;;;;;70.47;20.53;;;;;3.40;103424.00;;;;5055997;28;20237;-72
2022/01/13 08:53:18;;;;;;;65.50;19.53;;;;;3.50;103430.00;;;;5054306;28;20227;-72
2022/01/13 08:56:04;;;;;;;79.67;20.13;;;;;3.60;103437.00;;;;5061278;28;20270;-71
2022/01/13 08:58:51;;;;;;;70.03;20.73;;;;;3.50;103451.00;;;;5059331;28;20231;-70
2022/01/13 09:01:38;;;;;;;75.30;22.13;;;;;3.30;103441.00;;;;5066574;28;20231;-71
2022/01/13 09:04:25;;;;;;;88.43;21.50;;;;;3.50;103454.00;;;;5075146;28;20606;-72
2022/01/13 09:07:11;;;;;;;83.87;22.57;;;;;3.30;103449.00;;;;5057893;28;20234;-68
2022/01/13 09:10:18;;;;;;;76.20;21.20;;;;;3.40;103453.00;;;;5064912;28;20244;-73
2022/01/13 09:13:04;;;;;;;77.73;21.60;;;;;3.50;103454.00;;;;5060764;28;20236;-70
2022/01/13 09:15:57;;;;;;;84.13;22.63;;;;;3.40;103453.00;;;;5066200;28;20227;-67
2022/01/13 09:19:07;;;;;;;77.43;20.87;;;;;3.50;103463.00;;;;5057936;28;20227;-70
2022/01/13 09:21:55;;;;;;;75.00;20.67;;;;;3.50;103465.00;;;;5059120;28;20255;-70
2022/01/13 09:24:42;;;;;;;77.40;21.57;;;;;3.40;103463.00;;;;5066653;28;20605;-71
2022/01/13 09:27:28;;;;;;;82.07;21.60;;;;;3.30;103464.00;;;;5066158;28;20228;-70
2022/01/13 09:30:15;;;;;;;85.63;21.27;;;;;3.50;103451.00;;;;5067434;28;20239;-71
2022/01/13 09:33:01;;;;;;;75.43;20.67;;;;;3.40;103454.00;;;;5060528;28;20229;-70
2022/01/13 09:35:49;;;;;;;84.07;22.03;;;;;3.50;103450.00;;;;5063940;28;20746;-71
2022/01/13 09:38:36;;;;;;;77.47;21.23;;;;;3.50;103453.00;;;;5067306;28;20360;-70
2022/01/13 09:41:24;;;;;;;79.87;21.60;;;;;3.50;103442.00;;;;5065788;28;20239;-70
2022/01/13 09:44:13;;;;;;;74.43;20.77;;;;;3.50;103436.00;;;;5065938;28;20287;-70
2022/01/13 09:46:59;;;;;;;79.53;20.33;;;;;3.70;103446.00;;;;5061962;28;20228;-70
2022/01/13 09:49:45;;;;;;;92.23;21.73;;;;;3.60;103443.00;;;;5058100;28;20224;-69
2022/01/13 09:52:34;;;;;;;81.63;21.93;;;;;3.60;103444.00;;;;5065555;28;20722;-70
2022/01/13 09:55:21;;;;;;;89.47;24.27;;;;;3.50;103444.00;;;;5065541;28;20693;-72
2022/01/13 09:58:10;;;;;;;96.93;22.60;;;;;3.50;103456.00;;;;5066244;28;20247;-71
2022/01/13 10:00:57;;;;;;;80.90;22.63;;;;;3.50;103453.00;;;;5062467;28;20807;-70
2022/01/13 10:03:44;;;;;;;80.37;20.93;;;;;3.60;103453.00;;;;5059643;28;20224;-70
2022/01/13 10:06:30;;;;;;;85.77;22.53;;;;;3.50;103463.00;;;;5063479;28;20228;-69
2022/01/13 10:09:17;;;;;;;89.60;22.87;;;;;3.30;103465.00;;;;5065580;28;20244;-69
2022/01/13 10:12:08;;;;;;;80.60;22.10;;;;;3.40;103465.00;;;;5059665;28;20227;-70
2022/01/13 10:18:04;;;;;;;103.37;24.97;;;;;3.60;103460.00;;;;5059791;28;20239;-71
2022/01/13 10:21:05;;;;;;;91.70;23.93;;;;;3.70;103464.00;;;;5061251;28;20281;-71
2022/01/13 10:24:09;;;;;;;86.97;23.57;;;;;3.60;103473.00;;;;5058631;28;20889;-70
2022/01/13 10:27:08;;;;;;;97.43;24.83;;;;;3.50;103468.00;;;;5058576;28;20801;-68
2022/01/13 10:29:56;;;;;;;89.00;24.03;;;;;3.50;103457.00;;;;5058729;28;20279;-70
2022/01/13 10:32:44;;;;;;;106.07;24.97;;;;;3.60;103460.00;;;;5065017;28;20411;-72
2022/01/13 10:35:35;;;;;;;117.13;26.37;;;;;3.70;103453.00;;;;5065377;28;20765;-70
2022/01/13 10:38:21;;;;;;;90.80;26.67;;;;;3.60;103461.00;;;;5065160;28;20242;-70
2022/01/13 10:41:29;;;;;;;94.23;25.57;;;;;3.70;103450.00;;;;5065077;28;20297;-70
2022/01/13 10:44:33;;;;;;;94.27;24.33;;;;;3.80;103454.00;;;;5063722;28;20243;-71
2022/01/13 10:47:19;;;;;;;111.60;26.33;;;;;3.60;103446.00;;;;5064953;28;20241;-70
2022/01/13 10:50:09;;;;;;;99.53;26.33;;;;;3.70;103441.00;;;;5064974;28;20286;-72
2022/01/13 10:53:02;;;;;;;111.07;26.80;;;;;3.60;103438.00;;;;5058455;28;20299;-72
2022/01/13 10:55:51;;;;;;;105.07;26.40;;;;;3.80;103425.00;;;;5063272;28;20227;-70
2022/01/13 10:58:39;;;;;;;108.57;27.87;;;;;3.90;103433.00;;;;5065622;28;21341;-71
2022/01/13 11:01:35;;;;;;;108.67;27.57;;;;;3.80;103431.00;;;;5062492;28;20278;-71
2022/01/13 11:04:22;;;;;;;102.40;25.40;;;;;3.80;103417.00;;;;5067658;28;21016;-73
2022/01/13 11:07:16;;;;;;;105.57;27.47;;;;;3.80;103412.00;;;;5069059;28;20231;-71
2022/01/13 11:10:06;;;;;;;115.63;27.63;;;;;4.00;103417.00;;;;5063438;28;20282;-72
2022/01/13 11:12:57;;;;;;;104.23;27.90;;;;;3.80;103408.00;;;;5061881;28;20652;-69
2022/01/13 11:15:49;;;;;;;119.97;30.57;;;;;3.80;103400.00;;;;5065279;28;20278;-70
2022/01/13 11:18:36;;;;;;;110.43;29.53;;;;;3.70;103404.00;;;;5068851;28;20305;-70
2022/01/13 11:21:23;;;;;;;118.53;31.07;;;;;3.80;103390.00;;;;5065443;28;20240;-71
2022/01/13 11:24:09;;;;;;;115.83;30.43;;;;;3.80;103391.00;;;;5068568;28;20726;-72
2022/01/13 11:26:56;;;;;;;122.17;30.37;;;;;3.80;103385.00;;;;5062398;28;20338;-72
2022/01/13 11:29:43;;;;;;;115.17;26.83;;;;;3.80;103381.00;;;;5068951;28;20453;-70
2022/01/13 11:32:29;;;;;;;106.37;27.87;;;;;3.70;103382.00;;;;5068003;28;20236;-70
2022/01/13 11:35:22;;;;;;;91.77;25.90;;;;;3.90;103369.00;;;;5068724;28;20232;-71
2022/01/13 11:38:08;;;;;;;104.17;26.87;;;;;3.80;103376.00;;;;5068134;28;20312;-72
2022/01/13 11:40:59;;;;;;;102.90;25.40;;;;;3.80;103371.00;;;;5069859;28;20232;-73
2022/01/13 11:43:46;;;;;;;107.60;28.17;;;;;4.00;103376.00;;;;5065982;28;20233;-71
2022/01/13 11:46:32;;;;;;;107.63;27.37;;;;;3.90;103361.00;;;;5073427;28;20743;-71
2022/01/13 11:49:21;;;;;;;127.10;30.97;;;;;3.80;103369.00;;;;5065235;28;20250;-71
2022/01/13 11:52:15;;;;;;;120.73;30.17;;;;;3.90;103364.00;;;;5074166;28;20290;-71
2022/01/13 11:55:20;;;;;;;118.60;31.10;;;;;3.90;103336.00;;;;5067654;28;20229;-71
2022/01/13 11:58:31;;;;;;;131.60;31.63;;;;;3.90;103379.00;;;;5068118;28;20244;-71
2022/01/13 12:01:22;;;;;;;135.77;32.37;;;;;4.00;103374.00;;;;5069879;28;20259;-72
2022/01/13 12:04:08;;;;;;;120.63;30.30;;;;;3.80;103373.00;;;;5071194;28;20231;-72
2022/01/13 12:06:54;;;;;;;125.33;31.17;;;;;3.80;103374.00;;;;5065958;28;20351;-70
2022/01/13 12:09:42;;;;;;;109.03;29.67;;;;;3.70;103359.00;;;;5072770;28;20228;-72
2022/01/13 12:12:31;;;;;;;107.93;29.83;;;;;3.70;103358.00;;;;5071703;28;20327;-72
2022/01/13 12:15:18;;;;;;;131.13;31.93;;;;;3.80;103355.00;;;;5079658;28;20227;-72
2022/01/13 12:18:05;;;;;;;112.80;29.00;;;;;3.90;103357.00;;;;5070016;28;20232;-73
2022/01/13 12:21:09;;;;;;;101.50;26.60;;;;;3.80;103346.00;;;;5068884;28;20315;-67
2022/01/13 12:23:56;;;;;;;124.07;29.90;;;;;4.10;103347.00;;;;5068265;28;20223;-71
2022/01/13 12:26:56;;;;;;;117.73;31.10;;;;;3.90;103351.00;;;;5073590;28;20294;-72
2022/01/13 12:29:51;;;;;;;121.93;30.43;;;;;3.80;103352.00;;;;5071678;28;20270;-71
2022/01/13 12:32:40;;;;;;;107.70;27.77;;;;;3.80;103349.00;;;;5071917;28;20234;-68
2022/01/13 12:35:44;;;;;;;103.97;27.67;;;;;3.80;103337.00;;;;5074175;28;20290;-70
2022/01/13 12:38:30;;;;;;;101.30;27.27;;;;;3.80;103331.00;;;;5074180;28;20725;-70
2022/01/13 12:41:26;;;;;;;97.87;28.40;;;;;3.70;103334.00;;;;5061378;28;20248;-72
2022/01/13 12:45:27;;;;;;;95.33;27.93;;;;;3.70;103321.00;;;;5073687;28;20235;-73
2022/01/13 12:47:22;;;;;;;102.53;27.10;;;;;3.70;103328.00;;;;5067775;28;20601;-72
2022/01/13 12:50:20;;;;;;;91.20;25.23;;;;;3.60;103323.00;;;;5088609;28;20235;-73
2022/01/13 12:53:12;;;;;;;88.70;25.37;;;;;3.60;103316.00;;;;5079948;28;20231;-74
2022/01/13 12:56:00;;;;;;;95.53;23.83;;;;;3.70;103320.00;;;;5076041;28;20231;-73
2022/01/13 12:58:49;;;;;;;93.57;26.53;;;;;3.50;103329.00;;;;5069942;28;20231;-73
2022/01/13 13:01:38;;;;;;;102.43;27.97;;;;;3.70;103316.00;;;;5076499;28;20296;-72
2022/01/13 13:04:25;;;;;;;106.70;26.60;;;;;3.70;103315.00;;;;5081285;28;20228;-72
2022/01/13 13:07:12;;;;;;;109.93;28.10;;;;;3.70;103317.00;;;;5078508;28;20294;-72
2022/01/13 13:10:04;;;;;;;116.63;27.53;;;;;3.70;103304.00;;;;5066486;28;20231;-72
2022/01/13 13:12:52;;;;;;;112.20;28.53;;;;;3.70;103307.00;;;;5053735;28;20229;-70
2022/01/13 13:15:41;;;;;;;115.43;29.53;;;;;3.90;103301.00;;;;5075842;28;20274;-69
2022/01/13 13:18:31;;;;;;;117.73;28.00;;;;;3.90;103303.00;;;;5077804;28;20227;-71
2022/01/13 13:21:17;;;;;;;108.13;28.03;;;;;3.70;103297.00;;;;5071636;28;20315;-70
2022/01/13 13:24:04;;;;;;;107.73;25.53;;;;;3.80;103303.00;;;;5069557;28;20609;-71
2022/01/13 13:26:51;;;;;;;95.43;26.03;;;;;3.80;103300.00;;;;5072469;28;20231;-69
2022/01/13 13:29:37;;;;;;;93.27;26.07;;;;;3.90;103308.00;;;;5071511;28;20247;-67
2022/01/13 13:32:23;;;;;;;91.83;25.50;;;;;3.70;103306.00;;;;5074472;28;20232;-70
2022/01/13 13:35:14;;;;;;;105.53;27.50;;;;;4.00;103308.00;;;;5074875;28;20229;-69
2022/01/13 13:38:01;;;;;;;101.20;25.43;;;;;3.90;103300.00;;;;5070933;28;20239;-71
2022/01/13 13:40:48;;;;;;;94.10;26.00;;;;;3.80;103294.00;;;;5072304;28;20305;-70
2022/01/13 13:43:34;;;;;;;104.40;26.10;;;;;3.80;103293.00;;;;5067745;28;20349;-70
2022/01/13 13:46:21;;;;;;;95.20;26.17;;;;;3.70;103283.00;;;;5060316;28;20717;-70
2022/01/13 13:49:08;;;;;;;104.97;28.17;;;;;3.80;103287.00;;;;5065203;28;20232;-72
2022/01/13 13:51:58;;;;;;;104.43;26.67;;;;;3.80;103269.00;;;;5078242;28;20231;-69